sensor_id;sensor_type;location;lat;lon;timestamp;P1;durP1;ratioP1;P2;durP2;ratioP2
10432;SDS011;5263;48.680;9.004;2022-12-18T00:02:12;45.63;;;22.43;;
10432;SDS011;5263;48.680;9.004;2022-12-18T00:04:38;43.90;;;22.83;;
10432;SDS011;5263;48.680;9.004;2022-12-18T00:07:03;39.57;;;22.23;;
10432;SDS011;5263;48.680;9.004;2022-12-18T00:09:29;40.47;;;21.17;;
10432;SDS011;5263;48.680;9.004;2022-12-18T00:11:55;42.10;;;22.60;;
10432;SDS011;5263;48.680;9.004;2022-12-18T00:14:20;35.13;;;20.50;;
10432;SDS011;5263;48.680;9.004;2022-12-18T00:16:46;37.37;;;19.87;;
10432;SDS011;5263;48.680;9.004;2022-12-18T00:19:12;38.33;;;19.97;;
10432;SDS011;5263;48.680;9.004;2022-12-18T00:21:39;41.40;;;20.43;;
10432;SDS011;5263;48.680;9.004;2022-12-18T00:24:05;48.03;;;20.90;;
10432;SDS011;5263;48.680;9.004;2022-12-18T00:26:31;45.03;;;23.57;;
10432;SDS011;5263;48.680;9.004;2022-12-18T00:28:59;42.97;;;22.73;;
10432;SDS011;5263;48.680;9.004;2022-12-18T00:31:26;46.47;;;21.87;;
10432;SDS011;5263;48.680;9.004;2022-12-18T00:33:53;42.93;;;23.07;;
10432;SDS011;5263;48.680;9.004;2022-12-18T00:36:20;42.63;;;19.63;;
10432;SDS011;5263;48.680;9.004;2022-12-18T00:38:48;39.40;;;21.27;;
10432;SDS011;5263;48.680;9.004;2022-12-18T00:41:15;41.57;;;21.30;;
10432;SDS011;5263;48.680;9.004;2022-12-18T00:44:02;40.73;;;19.40;;
10432;SDS011;5263;48.680;9.004;2022-12-18T00:46:28;36.70;;;19.70;;
10432;SDS011;5263;48.680;9.004;2022-12-18T00:48:54;40.50;;;19.80;;
10432;SDS011;5263;48.680;9.004;2022-12-18T00:51:19;39.00;;;20.83;;
10432;SDS011;5263;48.680;9.004;2022-12-18T00:53:45;37.77;;;19.83;;
10432;SDS011;5263;48.680;9.004;2022-12-18T00:56:11;42.23;;;20.47;;
10432;SDS011;5263;48.680;9.004;2022-12-18T00:58:36;37.27;;;20.63;;
10432;SDS011;5263;48.680;9.004;2022-12-18T01:01:03;46.30;;;23.00;;
10432;SDS011;5263;48.680;9.004;2022-12-18T01:03:29;41.50;;;21.90;;
10432;SDS011;5263;48.680;9.004;2022-12-18T01:05:55;38.77;;;21.97;;
10432;SDS011;5263;48.680;9.004;2022-12-18T01:08:21;39.17;;;20.87;;
10432;SDS011;5263;48.680;9.004;2022-12-18T01:10:47;33.93;;;18.80;;
10432;SDS011;5263;48.680;9.004;2022-12-18T01:13:13;42.63;;;20.67;;
10432;SDS011;5263;48.680;9.004;2022-12-18T01:15:38;42.20;;;20.10;;
10432;SDS011;5263;48.680;9.004;2022-12-18T01:18:05;40.37;;;19.97;;
10432;SDS011;5263;48.680;9.004;2022-12-18T01:20:31;43.03;;;21.13;;
10432;SDS011;5263;48.680;9.004;2022-12-18T01:22:57;38.43;;;20.67;;
10432;SDS011;5263;48.680;9.004;2022-12-18T01:25:22;39.63;;;20.10;;
10432;SDS011;5263;48.680;9.004;2022-12-18T01:27:48;43.03;;;20.27;;
10432;SDS011;5263;48.680;9.004;2022-12-18T01:30:13;38.40;;;20.07;;
10432;SDS011;5263;48.680;9.004;2022-12-18T01:32:40;39.33;;;18.83;;
10432;SDS011;5263;48.680;9.004;2022-12-18T01:35:05;39.60;;;19.00;;
10432;SDS011;5263;48.680;9.004;2022-12-18T01:37:31;37.63;;;19.47;;
10432;SDS011;5263;48.680;9.004;2022-12-18T01:39:57;40.07;;;21.90;;
10432;SDS011;5263;48.680;9.004;2022-12-18T01:42:22;40.87;;;20.67;;
10432;SDS011;5263;48.680;9.004;2022-12-18T01:47:43;38.93;;;20.60;;
10432;SDS011;5263;48.680;9.004;2022-12-18T01:53:10;35.93;;;19.90;;
10432;SDS011;5263;48.680;9.004;2022-12-18T01:55:45;34.37;;;19.63;;
10432;SDS011;5263;48.680;9.004;2022-12-18T01:58:13;34.23;;;19.97;;
10432;SDS011;5263;48.680;9.004;2022-12-18T02:00:40;41.63;;;20.03;;
10432;SDS011;5263;48.680;9.004;2022-12-18T02:03:06;38.87;;;19.30;;
10432;SDS011;5263;48.680;9.004;2022-12-18T02:05:48;37.23;;;20.47;;
10432;SDS011;5263;48.680;9.004;2022-12-18T02:13:40;36.77;;;18.93;;
10432;SDS011;5263;48.680;9.004;2022-12-18T02:19:42;41.03;;;19.97;;
10432;SDS011;5263;48.680;9.004;2022-12-18T02:28:06;32.70;;;17.03;;
10432;SDS011;5263;48.680;9.004;2022-12-18T02:30:37;36.40;;;18.70;;
10432;SDS011;5263;48.680;9.004;2022-12-18T02:33:06;40.00;;;18.80;;
10432;SDS011;5263;48.680;9.004;2022-12-18T02:35:34;35.10;;;18.50;;
10432;SDS011;5263;48.680;9.004;2022-12-18T02:38:02;44.60;;;20.53;;
10432;SDS011;5263;48.680;9.004;2022-12-18T02:40:29;43.33;;;21.57;;
10432;SDS011;5263;48.680;9.004;2022-12-18T02:43:01;45.40;;;22.07;;
10432;SDS011;5263;48.680;9.004;2022-12-18T02:45:48;37.17;;;18.57;;
10432;SDS011;5263;48.680;9.004;2022-12-18T02:48:18;43.53;;;20.83;;
10432;SDS011;5263;48.680;9.004;2022-12-18T02:56:35;48.13;;;21.07;;
10432;SDS011;5263;48.680;9.004;2022-12-18T03:01:40;55.33;;;21.93;;
10432;SDS011;5263;48.680;9.004;2022-12-18T03:04:23;42.93;;;20.90;;
10432;SDS011;5263;48.680;9.004;2022-12-18T03:07:05;40.17;;;18.67;;
10432;SDS011;5263;48.680;9.004;2022-12-18T03:09:35;39.50;;;19.47;;
10432;SDS011;5263;48.680;9.004;2022-12-18T03:12:15;36.27;;;18.63;;
10432;SDS011;5263;48.680;9.004;2022-12-18T03:14:54;36.57;;;17.53;;
10432;SDS011;5263;48.680;9.004;2022-12-18T03:17:33;29.67;;;18.50;;
10432;SDS011;5263;48.680;9.004;2022-12-18T03:20:04;35.30;;;18.97;;
10432;SDS011;5263;48.680;9.004;2022-12-18T03:22:33;37.27;;;18.20;;
10432;SDS011;5263;48.680;9.004;2022-12-18T03:25:03;41.13;;;19.23;;
10432;SDS011;5263;48.680;9.004;2022-12-18T03:27:32;33.13;;;19.27;;
10432;SDS011;5263;48.680;9.004;2022-12-18T03:32:41;46.67;;;21.33;;
10432;SDS011;5263;48.680;9.004;2022-12-18T03:35:11;40.57;;;20.73;;
10432;SDS011;5263;48.680;9.004;2022-12-18T03:37:42;34.90;;;19.30;;
10432;SDS011;5263;48.680;9.004;2022-12-18T03:40:08;36.40;;;19.13;;
10432;SDS011;5263;48.680;9.004;2022-12-18T03:45:46;38.57;;;19.80;;
10432;SDS011;5263;48.680;9.004;2022-12-18T03:48:18;33.63;;;18.87;;
10432;SDS011;5263;48.680;9.004;2022-12-18T03:50:57;32.83;;;19.33;;
10432;SDS011;5263;48.680;9.004;2022-12-18T03:53:41;33.07;;;18.23;;
10432;SDS011;5263;48.680;9.004;2022-12-18T03:56:10;34.10;;;18.20;;
10432;SDS011;5263;48.680;9.004;2022-12-18T03:58:38;37.43;;;19.10;;
10432;SDS011;5263;48.680;9.004;2022-12-18T04:01:07;33.93;;;18.63;;
10432;SDS011;5263;48.680;9.004;2022-12-18T04:03:34;40.00;;;19.90;;
10432;SDS011;5263;48.680;9.004;2022-12-18T04:06:02;35.70;;;18.97;;
10432;SDS011;5263;48.680;9.004;2022-12-18T04:08:29;42.10;;;19.73;;
10432;SDS011;5263;48.680;9.004;2022-12-18T04:10:54;36.03;;;19.57;;
10432;SDS011;5263;48.680;9.004;2022-12-18T04:13:24;33.60;;;17.47;;
10432;SDS011;5263;48.680;9.004;2022-12-18T04:15:53;34.53;;;17.87;;
10432;SDS011;5263;48.680;9.004;2022-12-18T04:18:18;32.77;;;18.10;;
10432;SDS011;5263;48.680;9.004;2022-12-18T04:20:44;37.33;;;19.03;;
10432;SDS011;5263;48.680;9.004;2022-12-18T04:23:10;38.73;;;18.60;;
10432;SDS011;5263;48.680;9.004;2022-12-18T04:25:36;38.90;;;18.87;;
10432;SDS011;5263;48.680;9.004;2022-12-18T04:28:01;36.37;;;18.93;;
10432;SDS011;5263;48.680;9.004;2022-12-18T04:30:27;30.80;;;17.73;;
10432;SDS011;5263;48.680;9.004;2022-12-18T04:32:52;36.70;;;19.83;;
10432;SDS011;5263;48.680;9.004;2022-12-18T04:35:18;36.43;;;18.30;;
10432;SDS011;5263;48.680;9.004;2022-12-18T04:37:44;31.03;;;16.47;;
10432;SDS011;5263;48.680;9.004;2022-12-18T04:40:09;36.20;;;18.57;;
10432;SDS011;5263;48.680;9.004;2022-12-18T04:42:35;40.80;;;19.50;;
10432;SDS011;5263;48.680;9.004;2022-12-18T04:45:01;42.53;;;19.07;;
10432;SDS011;5263;48.680;9.004;2022-12-18T04:47:27;34.63;;;18.60;;
10432;SDS011;5263;48.680;9.004;2022-12-18T04:49:52;42.63;;;19.73;;
10432;SDS011;5263;48.680;9.004;2022-12-18T04:52:18;43.17;;;19.07;;
10432;SDS011;5263;48.680;9.004;2022-12-18T04:54:43;37.67;;;19.07;;
10432;SDS011;5263;48.680;9.004;2022-12-18T04:57:09;33.23;;;17.77;;
10432;SDS011;5263;48.680;9.004;2022-12-18T04:59:34;39.43;;;19.13;;
10432;SDS011;5263;48.680;9.004;2022-12-18T05:02:00;39.63;;;20.37;;
10432;SDS011;5263;48.680;9.004;2022-12-18T05:04:26;37.03;;;18.83;;
10432;SDS011;5263;48.680;9.004;2022-12-18T05:06:51;34.67;;;18.80;;
10432;SDS011;5263;48.680;9.004;2022-12-18T05:09:17;35.10;;;18.43;;
10432;SDS011;5263;48.680;9.004;2022-12-18T05:11:42;37.47;;;17.60;;
10432;SDS011;5263;48.680;9.004;2022-12-18T05:14:08;29.83;;;16.40;;
10432;SDS011;5263;48.680;9.004;2022-12-18T05:16:34;38.00;;;18.53;;
10432;SDS011;5263;48.680;9.004;2022-12-18T05:18:59;31.57;;;16.87;;
10432;SDS011;5263;48.680;9.004;2022-12-18T05:21:25;38.63;;;18.63;;
10432;SDS011;5263;48.680;9.004;2022-12-18T05:23:50;34.27;;;17.30;;
10432;SDS011;5263;48.680;9.004;2022-12-18T05:26:17;37.93;;;18.20;;
10432;SDS011;5263;48.680;9.004;2022-12-18T05:28:43;29.73;;;16.57;;
10432;SDS011;5263;48.680;9.004;2022-12-18T05:31:09;36.50;;;18.20;;
10432;SDS011;5263;48.680;9.004;2022-12-18T05:33:35;37.07;;;17.93;;
10432;SDS011;5263;48.680;9.004;2022-12-18T05:36:01;36.50;;;18.63;;
10432;SDS011;5263;48.680;9.004;2022-12-18T05:38:28;36.67;;;18.50;;
10432;SDS011;5263;48.680;9.004;2022-12-18T05:40:55;32.77;;;17.20;;
10432;SDS011;5263;48.680;9.004;2022-12-18T05:43:22;29.43;;;16.77;;
10432;SDS011;5263;48.680;9.004;2022-12-18T05:45:48;30.43;;;16.43;;
10432;SDS011;5263;48.680;9.004;2022-12-18T05:48:15;31.37;;;17.00;;
10432;SDS011;5263;48.680;9.004;2022-12-18T05:50:41;31.03;;;16.83;;
10432;SDS011;5263;48.680;9.004;2022-12-18T05:53:10;29.23;;;16.47;;
10432;SDS011;5263;48.680;9.004;2022-12-18T05:55:37;32.60;;;15.67;;
10432;SDS011;5263;48.680;9.004;2022-12-18T05:58:04;31.90;;;16.50;;
10432;SDS011;5263;48.680;9.004;2022-12-18T06:00:31;30.47;;;15.83;;
10432;SDS011;5263;48.680;9.004;2022-12-18T06:02:59;31.13;;;16.47;;
10432;SDS011;5263;48.680;9.004;2022-12-18T06:05:25;27.13;;;14.83;;
10432;SDS011;5263;48.680;9.004;2022-12-18T06:07:51;35.50;;;17.10;;
10432;SDS011;5263;48.680;9.004;2022-12-18T06:10:17;29.40;;;16.33;;
10432;SDS011;5263;48.680;9.004;2022-12-18T06:12:43;30.93;;;16.20;;
10432;SDS011;5263;48.680;9.004;2022-12-18T06:15:08;31.50;;;16.30;;
10432;SDS011;5263;48.680;9.004;2022-12-18T06:17:34;30.97;;;15.30;;
10432;SDS011;5263;48.680;9.004;2022-12-18T06:20:00;31.77;;;15.77;;
10432;SDS011;5263;48.680;9.004;2022-12-18T06:22:26;31.13;;;16.63;;
10432;SDS011;5263;48.680;9.004;2022-12-18T06:24:52;28.67;;;14.33;;
10432;SDS011;5263;48.680;9.004;2022-12-18T06:27:18;25.23;;;14.63;;
10432;SDS011;5263;48.680;9.004;2022-12-18T06:29:44;27.57;;;14.47;;
10432;SDS011;5263;48.680;9.004;2022-12-18T06:32:10;27.53;;;14.30;;
10432;SDS011;5263;48.680;9.004;2022-12-18T06:34:39;28.73;;;15.03;;
10432;SDS011;5263;48.680;9.004;2022-12-18T06:37:04;30.23;;;15.47;;
10432;SDS011;5263;48.680;9.004;2022-12-18T06:39:30;23.30;;;12.97;;
10432;SDS011;5263;48.680;9.004;2022-12-18T06:41:56;24.80;;;13.30;;
10432;SDS011;5263;48.680;9.004;2022-12-18T06:44:21;27.13;;;14.20;;
10432;SDS011;5263;48.680;9.004;2022-12-18T06:46:47;27.83;;;14.37;;
10432;SDS011;5263;48.680;9.004;2022-12-18T06:49:12;36.07;;;15.50;;
10432;SDS011;5263;48.680;9.004;2022-12-18T06:51:38;31.57;;;15.03;;
10432;SDS011;5263;48.680;9.004;2022-12-18T06:54:04;27.37;;;14.33;;
10432;SDS011;5263;48.680;9.004;2022-12-18T06:56:29;25.43;;;13.20;;
10432;SDS011;5263;48.680;9.004;2022-12-18T06:58:55;26.23;;;13.83;;
10432;SDS011;5263;48.680;9.004;2022-12-18T07:01:21;30.37;;;14.20;;
10432;SDS011;5263;48.680;9.004;2022-12-18T07:03:51;29.63;;;15.20;;
10432;SDS011;5263;48.680;9.004;2022-12-18T07:06:19;28.17;;;15.17;;
10432;SDS011;5263;48.680;9.004;2022-12-18T07:08:47;32.93;;;16.70;;
10432;SDS011;5263;48.680;9.004;2022-12-18T07:11:13;27.83;;;14.90;;
10432;SDS011;5263;48.680;9.004;2022-12-18T07:13:40;31.03;;;16.50;;
10432;SDS011;5263;48.680;9.004;2022-12-18T07:18:35;28.87;;;14.97;;
10432;SDS011;5263;48.680;9.004;2022-12-18T07:21:04;31.60;;;16.07;;
10432;SDS011;5263;48.680;9.004;2022-12-18T07:23:31;27.13;;;16.43;;
10432;SDS011;5263;48.680;9.004;2022-12-18T07:26:05;26.90;;;15.03;;
10432;SDS011;5263;48.680;9.004;2022-12-18T07:28:33;28.40;;;15.23;;
10432;SDS011;5263;48.680;9.004;2022-12-18T07:31:07;29.50;;;15.83;;
10432;SDS011;5263;48.680;9.004;2022-12-18T07:33:35;28.50;;;14.67;;
10432;SDS011;5263;48.680;9.004;2022-12-18T07:36:01;34.87;;;17.27;;
10432;SDS011;5263;48.680;9.004;2022-12-18T07:38:31;32.67;;;16.20;;
10432;SDS011;5263;48.680;9.004;2022-12-18T07:41:04;33.63;;;16.27;;
10432;SDS011;5263;48.680;9.004;2022-12-18T07:43:31;31.53;;;16.50;;
10432;SDS011;5263;48.680;9.004;2022-12-18T07:45:57;34.80;;;17.50;;
10432;SDS011;5263;48.680;9.004;2022-12-18T07:48:22;46.23;;;24.30;;
10432;SDS011;5263;48.680;9.004;2022-12-18T07:50:48;48.13;;;22.87;;
10432;SDS011;5263;48.680;9.004;2022-12-18T07:53:14;31.80;;;18.50;;
10432;SDS011;5263;48.680;9.004;2022-12-18T07:55:40;32.73;;;17.07;;
10432;SDS011;5263;48.680;9.004;2022-12-18T07:58:06;33.37;;;18.73;;
10432;SDS011;5263;48.680;9.004;2022-12-18T08:00:32;42.90;;;22.30;;
10432;SDS011;5263;48.680;9.004;2022-12-18T08:02:59;45.70;;;23.00;;
10432;SDS011;5263;48.680;9.004;2022-12-18T08:05:25;36.10;;;17.60;;
10432;SDS011;5263;48.680;9.004;2022-12-18T08:07:51;36.43;;;18.10;;
10432;SDS011;5263;48.680;9.004;2022-12-18T08:10:17;36.87;;;18.57;;
10432;SDS011;5263;48.680;9.004;2022-12-18T08:12:42;40.23;;;20.60;;
10432;SDS011;5263;48.680;9.004;2022-12-18T08:15:08;37.50;;;19.47;;
10432;SDS011;5263;48.680;9.004;2022-12-18T08:17:34;39.10;;;19.40;;
10432;SDS011;5263;48.680;9.004;2022-12-18T08:20:00;35.47;;;18.80;;
10432;SDS011;5263;48.680;9.004;2022-12-18T08:22:25;37.83;;;17.57;;
10432;SDS011;5263;48.680;9.004;2022-12-18T08:24:51;32.07;;;19.00;;
10432;SDS011;5263;48.680;9.004;2022-12-18T08:27:16;37.73;;;18.87;;
10432;SDS011;5263;48.680;9.004;2022-12-18T08:29:42;36.13;;;18.23;;
10432;SDS011;5263;48.680;9.004;2022-12-18T08:32:08;35.10;;;17.87;;
10432;SDS011;5263;48.680;9.004;2022-12-18T08:34:33;38.37;;;20.27;;
10432;SDS011;5263;48.680;9.004;2022-12-18T08:36:59;35.27;;;18.03;;
10432;SDS011;5263;48.680;9.004;2022-12-18T08:39:24;35.63;;;19.33;;
10432;SDS011;5263;48.680;9.004;2022-12-18T08:41:50;36.33;;;17.17;;
10432;SDS011;5263;48.680;9.004;2022-12-18T08:44:34;32.93;;;18.20;;
10432;SDS011;5263;48.680;9.004;2022-12-18T08:47:02;35.50;;;17.97;;
10432;SDS011;5263;48.680;9.004;2022-12-18T08:49:29;34.47;;;17.80;;
10432;SDS011;5263;48.680;9.004;2022-12-18T08:51:55;38.43;;;18.67;;
10432;SDS011;5263;48.680;9.004;2022-12-18T08:54:22;31.13;;;17.57;;
10432;SDS011;5263;48.680;9.004;2022-12-18T08:56:49;32.63;;;18.20;;
10432;SDS011;5263;48.680;9.004;2022-12-18T08:59:15;30.67;;;17.37;;
10432;SDS011;5263;48.680;9.004;2022-12-18T09:01:44;33.03;;;17.50;;
10432;SDS011;5263;48.680;9.004;2022-12-18T09:04:11;30.60;;;16.27;;
10432;SDS011;5263;48.680;9.004;2022-12-18T09:06:37;30.20;;;16.57;;
10432;SDS011;5263;48.680;9.004;2022-12-18T09:09:03;30.07;;;16.77;;
10432;SDS011;5263;48.680;9.004;2022-12-18T09:11:29;31.27;;;18.03;;
10432;SDS011;5263;48.680;9.004;2022-12-18T09:13:56;34.33;;;17.80;;
10432;SDS011;5263;48.680;9.004;2022-12-18T09:16:23;40.07;;;21.60;;
10432;SDS011;5263;48.680;9.004;2022-12-18T09:18:50;36.00;;;18.57;;
10432;SDS011;5263;48.680;9.004;2022-12-18T09:21:17;31.87;;;18.07;;
10432;SDS011;5263;48.680;9.004;2022-12-18T09:23:51;27.83;;;18.57;;
10432;SDS011;5263;48.680;9.004;2022-12-18T09:26:18;31.23;;;18.57;;
10432;SDS011;5263;48.680;9.004;2022-12-18T09:28:43;32.47;;;18.03;;
10432;SDS011;5263;48.680;9.004;2022-12-18T09:31:10;29.00;;;17.67;;
10432;SDS011;5263;48.680;9.004;2022-12-18T09:33:39;29.73;;;16.57;;
10432;SDS011;5263;48.680;9.004;2022-12-18T09:36:06;28.23;;;17.10;;
10432;SDS011;5263;48.680;9.004;2022-12-18T09:38:34;26.77;;;16.77;;
10432;SDS011;5263;48.680;9.004;2022-12-18T09:43:41;28.10;;;17.30;;
10432;SDS011;5263;48.680;9.004;2022-12-18T09:46:15;26.73;;;16.57;;
10432;SDS011;5263;48.680;9.004;2022-12-18T09:48:45;29.57;;;17.00;;
10432;SDS011;5263;48.680;9.004;2022-12-18T09:51:22;26.17;;;16.93;;
10432;SDS011;5263;48.680;9.004;2022-12-18T09:54:10;27.37;;;17.07;;
10432;SDS011;5263;48.680;9.004;2022-12-18T09:56:40;25.60;;;15.50;;
10432;SDS011;5263;48.680;9.004;2022-12-18T09:59:14;25.00;;;15.63;;
10432;SDS011;5263;48.680;9.004;2022-12-18T10:02:14;22.50;;;15.63;;
10432;SDS011;5263;48.680;9.004;2022-12-18T10:04:41;22.90;;;15.17;;
10432;SDS011;5263;48.680;9.004;2022-12-18T10:07:13;22.13;;;15.80;;
10432;SDS011;5263;48.680;9.004;2022-12-18T10:17:39;22.30;;;15.40;;
10432;SDS011;5263;48.680;9.004;2022-12-18T10:20:36;24.27;;;15.90;;
10432;SDS011;5263;48.680;9.004;2022-12-18T10:23:13;23.47;;;15.17;;
10432;SDS011;5263;48.680;9.004;2022-12-18T10:26:02;21.67;;;14.43;;
10432;SDS011;5263;48.680;9.004;2022-12-18T10:28:30;25.83;;;16.83;;
10432;SDS011;5263;48.680;9.004;2022-12-18T10:30:57;27.77;;;16.37;;
10432;SDS011;5263;48.680;9.004;2022-12-18T10:33:24;25.40;;;16.73;;
10432;SDS011;5263;48.680;9.004;2022-12-18T10:35:54;26.50;;;16.83;;
10432;SDS011;5263;48.680;9.004;2022-12-18T10:38:21;38.37;;;25.10;;
10432;SDS011;5263;48.680;9.004;2022-12-18T10:40:58;25.10;;;17.00;;
10432;SDS011;5263;48.680;9.004;2022-12-18T10:43:29;27.60;;;17.37;;
10432;SDS011;5263;48.680;9.004;2022-12-18T10:48:39;25.80;;;16.73;;
10432;SDS011;5263;48.680;9.004;2022-12-18T10:51:18;26.13;;;17.27;;
10432;SDS011;5263;48.680;9.004;2022-12-18T10:56:52;25.57;;;16.37;;
10432;SDS011;5263;48.680;9.004;2022-12-18T10:59:55;24.77;;;16.67;;
10432;SDS011;5263;48.680;9.004;2022-12-18T11:02:35;23.77;;;16.07;;
10432;SDS011;5263;48.680;9.004;2022-12-18T11:05:02;23.60;;;15.23;;
10432;SDS011;5263;48.680;9.004;2022-12-18T11:10:17;23.90;;;17.37;;
10432;SDS011;5263;48.680;9.004;2022-12-18T11:12:44;22.27;;;16.83;;
10432;SDS011;5263;48.680;9.004;2022-12-18T11:15:20;24.40;;;16.73;;
10432;SDS011;5263;48.680;9.004;2022-12-18T11:17:51;24.70;;;17.60;;
10432;SDS011;5263;48.680;9.004;2022-12-18T11:23:04;25.30;;;17.53;;
10432;SDS011;5263;48.680;9.004;2022-12-18T11:25:37;22.60;;;17.30;;
10432;SDS011;5263;48.680;9.004;2022-12-18T11:28:04;23.80;;;18.00;;
10432;SDS011;5263;48.680;9.004;2022-12-18T11:30:50;23.03;;;16.63;;
10432;SDS011;5263;48.680;9.004;2022-12-18T11:33:52;24.53;;;17.13;;
10432;SDS011;5263;48.680;9.004;2022-12-18T11:36:45;24.20;;;18.23;;
10432;SDS011;5263;48.680;9.004;2022-12-18T11:39:24;27.00;;;19.33;;
10432;SDS011;5263;48.680;9.004;2022-12-18T11:42:05;23.97;;;17.33;;
10432;SDS011;5263;48.680;9.004;2022-12-18T11:44:48;24.20;;;17.53;;
10432;SDS011;5263;48.680;9.004;2022-12-18T11:50:19;23.97;;;17.03;;
10432;SDS011;5263;48.680;9.004;2022-12-18T11:52:50;23.17;;;17.13;;
10432;SDS011;5263;48.680;9.004;2022-12-18T11:55:22;25.00;;;18.33;;
10432;SDS011;5263;48.680;9.004;2022-12-18T12:00:47;24.60;;;18.27;;
10432;SDS011;5263;48.680;9.004;2022-12-18T12:08:59;24.27;;;18.10;;
10432;SDS011;5263;48.680;9.004;2022-12-18T12:22:06;22.90;;;16.47;;
10432;SDS011;5263;48.680;9.004;2022-12-18T12:27:45;22.77;;;16.37;;
10432;SDS011;5263;48.680;9.004;2022-12-18T12:38:37;24.93;;;16.60;;
10432;SDS011;5263;48.680;9.004;2022-12-18T12:41:11;26.30;;;17.70;;
10432;SDS011;5263;48.680;9.004;2022-12-18T12:43:58;30.83;;;19.10;;
10432;SDS011;5263;48.680;9.004;2022-12-18T12:46:27;26.80;;;17.27;;
10432;SDS011;5263;48.680;9.004;2022-12-18T12:49:19;28.03;;;18.37;;
10432;SDS011;5263;48.680;9.004;2022-12-18T12:51:49;27.17;;;16.90;;
10432;SDS011;5263;48.680;9.004;2022-12-18T12:54:23;26.80;;;17.43;;
10432;SDS011;5263;48.680;9.004;2022-12-18T12:56:56;30.67;;;19.17;;
10432;SDS011;5263;48.680;9.004;2022-12-18T12:59:35;32.00;;;21.03;;
10432;SDS011;5263;48.680;9.004;2022-12-18T13:04:58;28.77;;;18.37;;
10432;SDS011;5263;48.680;9.004;2022-12-18T13:07:56;25.90;;;17.50;;
10432;SDS011;5263;48.680;9.004;2022-12-18T13:10:24;25.77;;;17.40;;
10432;SDS011;5263;48.680;9.004;2022-12-18T13:12:56;27.83;;;18.30;;
10432;SDS011;5263;48.680;9.004;2022-12-18T13:18:04;27.13;;;17.87;;
10432;SDS011;5263;48.680;9.004;2022-12-18T13:20:46;25.13;;;17.40;;
10432;SDS011;5263;48.680;9.004;2022-12-18T13:30:58;27.20;;;16.83;;
10432;SDS011;5263;48.680;9.004;2022-12-18T13:36:28;30.47;;;18.43;;
10432;SDS011;5263;48.680;9.004;2022-12-18T13:44:33;29.20;;;19.30;;
10432;SDS011;5263;48.680;9.004;2022-12-18T13:47:27;30.03;;;18.03;;
10432;SDS011;5263;48.680;9.004;2022-12-18T13:49:58;31.27;;;20.67;;
10432;SDS011;5263;48.680;9.004;2022-12-18T13:52:25;35.47;;;19.07;;
10432;SDS011;5263;48.680;9.004;2022-12-18T13:55:00;32.70;;;18.77;;
10432;SDS011;5263;48.680;9.004;2022-12-18T13:57:29;35.80;;;19.93;;
10432;SDS011;5263;48.680;9.004;2022-12-18T14:02:52;34.73;;;19.63;;
10432;SDS011;5263;48.680;9.004;2022-12-18T14:05:25;32.67;;;19.97;;
10432;SDS011;5263;48.680;9.004;2022-12-18T14:07:52;35.07;;;20.03;;
10432;SDS011;5263;48.680;9.004;2022-12-18T14:10:19;34.60;;;20.50;;
10432;SDS011;5263;48.680;9.004;2022-12-18T14:12:50;34.53;;;20.83;;
10432;SDS011;5263;48.680;9.004;2022-12-18T14:15:24;34.60;;;21.20;;
10432;SDS011;5263;48.680;9.004;2022-12-18T14:17:52;32.43;;;18.87;;
10432;SDS011;5263;48.680;9.004;2022-12-18T14:20:40;36.23;;;19.33;;
10432;SDS011;5263;48.680;9.004;2022-12-18T14:23:27;32.83;;;19.93;;
10432;SDS011;5263;48.680;9.004;2022-12-18T14:25:58;37.20;;;21.10;;
10432;SDS011;5263;48.680;9.004;2022-12-18T14:28:25;35.37;;;21.60;;
10432;SDS011;5263;48.680;9.004;2022-12-18T14:30:54;37.30;;;24.23;;
10432;SDS011;5263;48.680;9.004;2022-12-18T14:33:24;35.33;;;21.73;;
10432;SDS011;5263;48.680;9.004;2022-12-18T14:38:31;43.33;;;23.27;;
10432;SDS011;5263;48.680;9.004;2022-12-18T14:41:03;40.27;;;22.70;;
10432;SDS011;5263;48.680;9.004;2022-12-18T14:43:37;35.63;;;20.20;;
10432;SDS011;5263;48.680;9.004;2022-12-18T14:46:25;35.70;;;21.47;;
10432;SDS011;5263;48.680;9.004;2022-12-18T14:48:54;38.80;;;21.87;;
10432;SDS011;5263;48.680;9.004;2022-12-18T14:51:21;40.90;;;22.73;;
10432;SDS011;5263;48.680;9.004;2022-12-18T14:53:59;39.83;;;21.43;;
10432;SDS011;5263;48.680;9.004;2022-12-18T14:56:31;42.73;;;23.23;;
10432;SDS011;5263;48.680;9.004;2022-12-18T14:59:05;43.93;;;23.93;;
10432;SDS011;5263;48.680;9.004;2022-12-18T15:07:02;44.73;;;23.17;;
10432;SDS011;5263;48.680;9.004;2022-12-18T15:09:38;39.93;;;20.77;;
10432;SDS011;5263;48.680;9.004;2022-12-18T15:12:15;39.47;;;22.67;;
10432;SDS011;5263;48.680;9.004;2022-12-18T15:14:49;42.00;;;22.50;;
10432;SDS011;5263;48.680;9.004;2022-12-18T15:17:18;43.00;;;22.67;;
10432;SDS011;5263;48.680;9.004;2022-12-18T15:19:47;42.57;;;24.73;;
10432;SDS011;5263;48.680;9.004;2022-12-18T15:22:18;42.93;;;24.47;;
10432;SDS011;5263;48.680;9.004;2022-12-18T15:24:46;42.30;;;21.87;;
10432;SDS011;5263;48.680;9.004;2022-12-18T15:27:22;44.87;;;23.77;;
10432;SDS011;5263;48.680;9.004;2022-12-18T15:32:35;38.77;;;22.73;;
10432;SDS011;5263;48.680;9.004;2022-12-18T15:35:03;43.10;;;23.00;;
10432;SDS011;5263;48.680;9.004;2022-12-18T15:37:43;44.03;;;22.90;;
10432;SDS011;5263;48.680;9.004;2022-12-18T15:40:42;46.87;;;24.53;;
10432;SDS011;5263;48.680;9.004;2022-12-18T15:43:00;43.80;;;23.60;;
10432;SDS011;5263;48.680;9.004;2022-12-18T15:45:45;48.93;;;24.97;;
10432;SDS011;5263;48.680;9.004;2022-12-18T15:48:15;43.67;;;23.30;;
10432;SDS011;5263;48.680;9.004;2022-12-18T15:50:45;42.67;;;23.30;;
10432;SDS011;5263;48.680;9.004;2022-12-18T15:53:11;39.70;;;22.07;;
10432;SDS011;5263;48.680;9.004;2022-12-18T15:55:36;46.00;;;23.90;;
10432;SDS011;5263;48.680;9.004;2022-12-18T15:58:21;48.53;;;24.20;;
10432;SDS011;5263;48.680;9.004;2022-12-18T16:00:47;49.17;;;26.10;;
10432;SDS011;5263;48.680;9.004;2022-12-18T16:03:12;40.23;;;22.50;;
10432;SDS011;5263;48.680;9.004;2022-12-18T16:05:38;45.00;;;23.43;;
10432;SDS011;5263;48.680;9.004;2022-12-18T16:08:04;41.47;;;22.47;;
10432;SDS011;5263;48.680;9.004;2022-12-18T16:10:29;45.57;;;24.50;;
10432;SDS011;5263;48.680;9.004;2022-12-18T16:12:55;46.47;;;24.13;;
10432;SDS011;5263;48.680;9.004;2022-12-18T16:15:21;51.63;;;24.83;;
10432;SDS011;5263;48.680;9.004;2022-12-18T16:17:47;38.80;;;22.07;;
10432;SDS011;5263;48.680;9.004;2022-12-18T16:20:14;40.63;;;22.43;;
10432;SDS011;5263;48.680;9.004;2022-12-18T16:22:42;40.87;;;23.47;;
10432;SDS011;5263;48.680;9.004;2022-12-18T16:25:20;45.00;;;24.87;;
10432;SDS011;5263;48.680;9.004;2022-12-18T16:27:47;48.67;;;23.93;;
10432;SDS011;5263;48.680;9.004;2022-12-18T16:30:14;43.37;;;22.30;;
10432;SDS011;5263;48.680;9.004;2022-12-18T16:32:40;44.53;;;22.30;;
10432;SDS011;5263;48.680;9.004;2022-12-18T16:35:08;37.10;;;21.60;;
10432;SDS011;5263;48.680;9.004;2022-12-18T16:37:35;45.27;;;23.30;;
10432;SDS011;5263;48.680;9.004;2022-12-18T16:40:00;42.27;;;20.97;;
10432;SDS011;5263;48.680;9.004;2022-12-18T16:42:26;42.03;;;20.70;;
10432;SDS011;5263;48.680;9.004;2022-12-18T16:44:51;70.30;;;36.83;;
10432;SDS011;5263;48.680;9.004;2022-12-18T16:47:17;38.97;;;22.83;;
10432;SDS011;5263;48.680;9.004;2022-12-18T16:49:43;39.03;;;21.10;;
10432;SDS011;5263;48.680;9.004;2022-12-18T16:52:10;37.10;;;20.53;;
10432;SDS011;5263;48.680;9.004;2022-12-18T16:54:35;40.73;;;21.60;;
10432;SDS011;5263;48.680;9.004;2022-12-18T16:57:01;37.83;;;21.03;;